createdAt,value
2018-02-08T00:00:08.524Z,-2.24
2018-02-08T00:01:08.521Z,-2.40
2018-02-08T00:03:01.478Z,-2.29
2018-02-08T00:04:01.489Z,-2.32
2018-02-08T00:05:54.360Z,-2.32
2018-02-08T00:06:54.366Z,-2.47
2018-02-08T00:08:47.813Z,-2.53
2018-02-08T00:09:47.804Z,-2.60
2018-02-08T00:11:40.708Z,-2.74
2018-02-08T00:12:40.712Z,-2.75
2018-02-08T00:14:33.663Z,-2.72
2018-02-08T00:15:33.644Z,-2.74
2018-02-08T00:17:27.082Z,-2.71
2018-02-08T00:18:27.080Z,-2.68
2018-02-08T00:20:19.981Z,-2.86
2018-02-08T00:21:19.990Z,-2.82
2018-02-08T00:23:12.974Z,-2.93
2018-02-08T00:24:12.953Z,-2.92
2018-02-08T00:26:05.870Z,-2.85
2018-02-08T00:27:05.875Z,-2.86
2018-02-08T00:28:58.808Z,-2.71
2018-02-08T00:29:58.799Z,-2.71
2018-02-08T00:31:51.707Z,-2.82
2018-02-08T00:32:51.712Z,-2.86
2018-02-08T00:34:44.650Z,-2.87
2018-02-08T00:35:44.636Z,-3.04
2018-02-08T00:37:37.566Z,-3.10
2018-02-08T00:38:37.553Z,-3.17
2018-02-08T00:40:30.967Z,-3.22
2018-02-08T00:41:30.969Z,-3.28
2018-02-08T00:43:23.912Z,-3.32
2018-02-08T00:44:23.897Z,-3.29
2018-02-08T00:46:16.805Z,-3.38
2018-02-08T00:47:16.812Z,-3.49
2018-02-08T00:49:09.750Z,-3.47
2018-02-08T00:50:09.738Z,-3.53
2018-02-08T00:52:02.655Z,-3.54
2018-02-08T00:53:02.657Z,-3.53
2018-02-08T00:54:55.604Z,-3.54
2018-02-08T00:55:55.587Z,-3.60
2018-02-08T00:57:48.537Z,-3.44
2018-02-08T00:58:48.512Z,-3.47
2018-02-08T01:00:41.498Z,-3.35
2018-02-08T01:01:41.500Z,-3.31
2018-02-08T01:03:34.937Z,-3.22
2018-02-08T01:04:34.919Z,-3.07
2018-02-08T01:06:27.834Z,-2.92
2018-02-08T01:07:27.838Z,-2.87
2018-02-08T01:09:20.772Z,-2.82
2018-02-08T01:10:20.756Z,-2.78
2018-02-08T01:12:13.669Z,-2.68
2018-02-08T01:13:13.675Z,-2.74
2018-02-08T01:15:06.625Z,-2.74
2018-02-08T01:16:06.606Z,-2.66
2018-02-08T01:17:59.535Z,-2.64
2018-02-08T01:18:59.519Z,-2.66
2018-02-08T01:20:52.442Z,-2.61
2018-02-08T01:21:52.446Z,-2.63
2018-02-08T01:23:45.385Z,-2.61
2018-02-08T01:24:45.368Z,-2.63
2018-02-08T01:26:38.289Z,-2.64
2018-02-08T01:27:38.291Z,-2.54
2018-02-08T01:29:31.224Z,-2.68
2018-02-08T01:30:31.216Z,-2.64
2018-02-08T01:32:24.121Z,-2.61
2018-02-08T01:33:24.126Z,-2.58
2018-02-08T01:35:17.067Z,-2.60
2018-02-08T01:36:17.048Z,-2.60
2018-02-08T01:38:09.988Z,-2.68
2018-02-08T01:39:09.971Z,-2.72
2018-02-08T01:41:02.882Z,-2.71
2018-02-08T01:42:02.890Z,-2.58
2018-02-08T01:43:55.824Z,-2.54
2018-02-08T01:44:55.807Z,-2.68
2018-02-08T01:46:48.718Z,-2.72
2018-02-08T01:47:48.724Z,-2.68
2018-02-08T01:49:41.657Z,-2.76
2018-02-08T01:50:41.638Z,-2.96
2018-02-08T01:52:34.555Z,-3.22
2018-02-08T01:53:34.556Z,-3.39
2018-02-08T01:55:27.494Z,-3.22
2018-02-08T01:56:27.484Z,-3.26
2018-02-08T01:58:20.420Z,-3.11
2018-02-08T01:59:20.404Z,-3.00
2018-02-08T02:01:13.324Z,-2.92
2018-02-08T02:02:13.331Z,-2.93
2018-02-08T02:04:06.263Z,-2.90
2018-02-08T02:05:06.250Z,-2.90
2018-02-08T02:06:59.162Z,-2.71
2018-02-08T02:07:59.173Z,-2.63
2018-02-08T02:09:52.099Z,-2.74
2018-02-08T02:10:52.082Z,-2.79
2018-02-08T02:12:44.998Z,-2.71
2018-02-08T02:13:45.006Z,-2.79
2018-02-08T02:15:37.940Z,-2.92
2018-02-08T02:16:37.921Z,-2.82
2018-02-08T02:18:30.860Z,-3.05
2018-02-08T02:19:30.850Z,-3.15
2018-02-08T02:21:23.790Z,-3.29
2018-02-08T02:22:23.778Z,-3.47
2018-02-08T02:24:16.722Z,-3.53
2018-02-08T02:25:16.699Z,-3.51
2018-02-08T02:27:09.607Z,-3.57
2018-02-08T02:28:09.610Z,-3.60
2018-02-08T02:30:02.643Z,-3.65
2018-02-08T02:31:02.556Z,-3.72
2018-02-08T02:32:55.969Z,-3.60
2018-02-08T02:33:55.976Z,-3.61
2018-02-08T02:35:48.915Z,-3.60
2018-02-08T02:36:48.892Z,-3.60
2018-02-08T02:38:41.823Z,-3.70
2018-02-08T02:39:41.808Z,-3.64
2018-02-08T02:41:34.734Z,-3.43
2018-02-08T02:42:34.734Z,-3.46
2018-02-08T02:44:27.684Z,-3.53
2018-02-08T02:45:27.657Z,-3.60
2018-02-08T02:47:20.564Z,-3.57
2018-02-08T02:48:20.569Z,-3.61
2018-02-08T02:50:13.509Z,-3.76
2018-02-08T02:51:13.491Z,-3.81
2018-02-08T02:53:07.399Z,-3.86
2018-02-08T02:54:07.396Z,-3.80
2018-02-08T02:56:00.335Z,-3.51
2018-02-08T02:57:00.322Z,-3.64
2018-02-08T02:58:53.254Z,-3.36
2018-02-08T02:59:53.237Z,-3.36
2018-02-08T03:01:46.148Z,-3.31
2018-02-08T03:02:46.154Z,-3.23
2018-02-08T03:04:39.138Z,-3.20
2018-02-08T03:05:39.078Z,-3.17
2018-02-08T03:07:31.993Z,-3.08
2018-02-08T03:08:31.990Z,-3.05
2018-02-08T03:10:24.927Z,-2.97
2018-02-08T03:11:24.916Z,-3.08
2018-02-08T03:13:17.829Z,-3.05
2018-02-08T03:14:17.833Z,-3.05
2018-02-08T03:16:10.782Z,-3.08
2018-02-08T03:17:10.755Z,-3.15
2018-02-08T03:19:03.691Z,-3.07
2018-02-08T03:20:03.678Z,-3.22
2018-02-08T03:21:56.625Z,-3.17
2018-02-08T03:22:56.606Z,-3.04
2018-02-08T03:24:49.536Z,-3.00
2018-02-08T03:25:49.520Z,-3.00
2018-02-08T03:27:42.430Z,-3.08
2018-02-08T03:28:42.438Z,-3.20
2018-02-08T03:30:35.379Z,-3.26
2018-02-08T03:31:35.359Z,-3.33
2018-02-08T03:33:28.773Z,-3.62
2018-02-08T03:34:28.788Z,-3.61
2018-02-08T03:36:21.706Z,-3.76
2018-02-08T03:37:21.702Z,-4.01
2018-02-08T03:39:14.622Z,-4.07
2018-02-08T03:40:14.608Z,-4.14
2018-02-08T03:42:07.536Z,-4.20
2018-02-08T03:43:07.541Z,-4.29
2018-02-08T03:45:00.468Z,-4.33
2018-02-08T03:46:00.452Z,-4.38
2018-02-08T03:47:53.364Z,-4.38
2018-02-08T03:48:53.378Z,-4.33
2018-02-08T03:50:46.308Z,-4.44
2018-02-08T03:51:46.294Z,-4.38
2018-02-08T03:53:40.202Z,-4.41
2018-02-08T03:54:40.204Z,-4.26
2018-02-08T03:56:33.142Z,-4.37
2018-02-08T03:57:33.129Z,-4.40
2018-02-08T03:59:26.554Z,-4.40
2018-02-08T04:00:26.541Z,-4.40
2018-02-08T04:02:19.456Z,-4.47
2018-02-08T04:03:19.461Z,-4.54
2018-02-08T04:05:12.397Z,-4.54
2018-02-08T04:06:12.379Z,-4.66
2018-02-08T04:08:05.290Z,-4.66
2018-02-08T04:09:05.328Z,-4.64
2018-02-08T04:10:58.237Z,-4.64
2018-02-08T04:11:58.220Z,-4.66
2018-02-08T04:13:51.139Z,-4.62
2018-02-08T04:14:51.151Z,-4.62
2018-02-08T04:16:44.059Z,-4.61
2018-02-08T04:17:44.046Z,-4.62
2018-02-08T04:19:36.986Z,-4.65
2018-02-08T04:20:36.967Z,-4.65
2018-02-08T04:22:29.904Z,-4.68
2018-02-08T04:23:29.883Z,-4.55
2018-02-08T04:25:22.854Z,-4.61
2018-02-08T04:26:22.822Z,-4.44
2018-02-08T04:28:15.750Z,-4.47
2018-02-08T04:29:15.741Z,-4.51
2018-02-08T04:31:08.673Z,-4.51
2018-02-08T04:32:08.656Z,-4.44
2018-02-08T04:34:02.080Z,-4.38
2018-02-08T04:35:02.068Z,-4.54
2018-02-08T04:36:55.013Z,-4.43
2018-02-08T04:37:54.996Z,-4.46
2018-02-08T04:39:47.911Z,-4.43
2018-02-08T04:40:47.913Z,-4.43
2018-02-08T04:42:40.850Z,-4.58
2018-02-08T04:43:40.833Z,-4.57
2018-02-08T04:45:33.768Z,-4.75
2018-02-08T04:46:33.753Z,-4.79
2018-02-08T04:48:27.157Z,-4.85
2018-02-08T04:49:27.175Z,-4.86
2018-02-08T04:51:20.091Z,-4.79
2018-02-08T04:52:20.078Z,-4.79
2018-02-08T04:54:12.988Z,-4.76
2018-02-08T04:55:12.997Z,-4.85
2018-02-08T04:57:05.924Z,-4.86
2018-02-08T04:58:05.909Z,-4.82
2018-02-08T04:59:58.821Z,-4.91
2018-02-08T05:00:58.826Z,-4.97
2018-02-08T05:02:51.756Z,-4.95
2018-02-08T05:03:51.739Z,-4.94
2018-02-08T05:05:44.692Z,-4.80
2018-02-08T05:06:44.672Z,-4.91
2018-02-08T05:08:37.594Z,-4.76
2018-02-08T05:09:37.591Z,-4.68
2018-02-08T05:11:30.525Z,-4.41
2018-02-08T05:12:30.510Z,-4.40
2018-02-08T05:14:23.425Z,-4.26
2018-02-08T05:15:23.426Z,-4.23
2018-02-08T05:17:16.365Z,-4.36
2018-02-08T05:18:16.346Z,-4.30
2018-02-08T05:20:09.258Z,-4.41
2018-02-08T05:21:09.275Z,-4.51
2018-02-08T05:23:02.191Z,-4.61
2018-02-08T05:24:02.186Z,-4.69
2018-02-08T05:25:55.118Z,-4.57
2018-02-08T05:26:55.106Z,-4.51
2018-02-08T05:28:48.040Z,-4.40
2018-02-08T05:29:48.022Z,-4.38
2018-02-08T05:31:40.964Z,-4.23
2018-02-08T05:32:40.939Z,-4.28
2018-02-08T05:34:34.360Z,-4.05
2018-02-08T05:35:34.352Z,-4.02
2018-02-08T05:37:27.290Z,-3.98
2018-02-08T05:38:27.277Z,-4.05
2018-02-08T05:40:20.188Z,-4.08
2018-02-08T05:41:20.191Z,-4.22
2018-02-08T05:43:13.124Z,-4.20
2018-02-08T05:44:13.105Z,-4.28
2018-02-08T05:46:06.011Z,-4.20
2018-02-08T05:47:06.024Z,-4.18
2018-02-08T05:48:58.967Z,-4.40
2018-02-08T05:49:58.934Z,-4.29
2018-02-08T05:51:51.894Z,-4.54
2018-02-08T05:52:51.842Z,-4.47
2018-02-08T05:54:44.758Z,-4.58
2018-02-08T05:55:44.764Z,-4.65
2018-02-08T05:57:37.696Z,-4.64
2018-02-08T05:58:37.677Z,-4.75
2018-02-08T06:00:30.594Z,-4.80
2018-02-08T06:01:30.601Z,-4.77
2018-02-08T06:03:23.527Z,-4.77
2018-02-08T06:04:23.515Z,-4.76
2018-02-08T06:06:16.433Z,-4.79
2018-02-08T06:07:16.437Z,-4.76
2018-02-08T06:09:09.371Z,-4.75
2018-02-08T06:10:09.350Z,-4.59
2018-02-08T06:12:02.283Z,-4.57
2018-02-08T06:13:02.269Z,-4.47
2018-02-08T06:14:55.180Z,-4.48
2018-02-08T06:15:55.187Z,-4.48
2018-02-08T06:17:48.118Z,-4.66
2018-02-08T06:18:48.107Z,-4.62
2018-02-08T06:20:41.518Z,-4.79
2018-02-08T06:21:41.518Z,-4.71
2018-02-08T06:23:34.455Z,-4.85
2018-02-08T06:24:34.433Z,-4.89
2018-02-08T06:26:27.349Z,-4.89
2018-02-08T06:27:27.349Z,-4.89
2018-02-08T06:29:20.778Z,-4.91
2018-02-08T06:30:20.768Z,-4.95
2018-02-08T06:32:16.715Z,-4.86
2018-02-08T06:33:16.676Z,-4.83
2018-02-08T06:35:09.587Z,-4.93
2018-02-08T06:36:09.591Z,-4.86
2018-02-08T06:38:02.516Z,-4.86
2018-02-08T06:39:02.506Z,-4.87
2018-02-08T06:40:55.425Z,-4.89
2018-02-08T06:41:55.418Z,-4.85
2018-02-08T06:43:48.353Z,-4.82
2018-02-08T06:44:48.337Z,-4.83
2018-02-08T06:46:41.272Z,-4.82
2018-02-08T06:47:41.258Z,-4.80
2018-02-08T06:49:34.698Z,-4.89
2018-02-08T06:50:34.671Z,-4.79
2018-02-08T06:52:27.604Z,-4.85
2018-02-08T06:53:27.590Z,-4.80
2018-02-08T06:55:20.492Z,-4.79
2018-02-08T06:56:20.499Z,-4.85
2018-02-08T06:58:13.450Z,-4.79
2018-02-08T06:59:13.512Z,-4.73
2018-02-08T07:01:06.323Z,-4.71
2018-02-08T07:02:06.335Z,-4.77
2018-02-08T07:03:59.252Z,-4.77
2018-02-08T07:04:59.238Z,-4.79
2018-02-08T07:06:55.159Z,-4.91
2018-02-08T07:07:55.155Z,-4.95
2018-02-08T07:09:49.606Z,-4.79
2018-02-08T07:10:49.595Z,-4.71
2018-02-08T07:12:43.183Z,-4.75
2018-02-08T07:13:42.568Z,-4.73
2018-02-08T07:15:37.049Z,-4.71
2018-02-08T07:16:37.038Z,-4.86
2018-02-08T07:18:30.510Z,-4.80
2018-02-08T07:19:30.517Z,-4.79
2018-02-08T07:21:23.444Z,-4.69
2018-02-08T07:22:23.454Z,-4.62
2018-02-08T07:24:16.424Z,-4.61
2018-02-08T07:25:16.568Z,-4.48
2018-02-08T07:27:09.870Z,-4.47
2018-02-08T07:28:09.870Z,-4.41
2018-02-08T07:30:02.844Z,-4.25
2018-02-08T07:31:03.246Z,-4.26
2018-02-08T07:32:55.788Z,-4.15
2018-02-08T07:33:55.769Z,-4.15
2018-02-08T07:35:48.790Z,-4.04
2018-02-08T07:36:48.722Z,-4.02
2018-02-08T07:38:42.267Z,-3.87
2018-02-08T07:39:42.267Z,-3.86
2018-02-08T07:41:36.728Z,-3.71
2018-02-08T07:42:36.683Z,-3.65
2018-02-08T07:44:35.021Z,-3.65
2018-02-08T07:45:35.150Z,-3.54
2018-02-08T07:47:27.948Z,-3.46
2018-02-08T07:48:28.019Z,-3.39
2018-02-08T07:50:21.005Z,-3.43
2018-02-08T07:51:20.973Z,-3.33
2018-02-08T07:53:14.411Z,-3.26
2018-02-08T07:54:14.325Z,-3.10
2018-02-08T07:56:07.796Z,-2.93
2018-02-08T07:57:07.832Z,-2.81
2018-02-08T07:59:00.765Z,-2.69
2018-02-08T08:00:00.765Z,-2.66
2018-02-08T08:01:53.788Z,-2.72
2018-02-08T08:02:53.815Z,-2.63
2018-02-08T08:04:46.664Z,-2.58
2018-02-08T08:05:46.671Z,-2.42
2018-02-08T08:07:39.687Z,-2.29
2018-02-08T08:08:39.811Z,-2.14
2018-02-08T08:10:32.749Z,-2.14
2018-02-08T08:11:32.591Z,-2.23
2018-02-08T08:13:25.556Z,-2.39
2018-02-08T08:14:25.519Z,-2.43
2018-02-08T08:16:18.465Z,-2.33
2018-02-08T08:17:18.501Z,-2.29
2018-02-08T08:19:11.975Z,-2.18
2018-02-08T08:20:11.927Z,-2.28
2018-02-08T08:22:04.941Z,-2.45
2018-02-08T08:23:04.983Z,-2.63
2018-02-08T08:24:57.963Z,-2.60
2018-02-08T08:25:57.937Z,-2.51
2018-02-08T08:27:50.960Z,-2.54
2018-02-08T08:28:50.960Z,-2.53
2018-02-08T08:30:44.036Z,-2.56
2018-02-08T08:31:44.026Z,-2.50
2018-02-08T08:33:37.020Z,-2.58
2018-02-08T08:34:37.004Z,-2.57
2018-02-08T08:36:30.171Z,-2.64
2018-02-08T08:37:29.964Z,-2.72
2018-02-08T08:39:22.927Z,-2.82
2018-02-08T08:40:22.949Z,-2.82
2018-02-08T08:42:15.854Z,-2.79
2018-02-08T08:43:15.856Z,-2.72
2018-02-08T08:45:08.789Z,-2.69
2018-02-08T08:46:08.775Z,-2.68
2018-02-08T08:48:01.695Z,-2.57
2018-02-08T08:49:01.699Z,-2.47
2018-02-08T08:50:54.649Z,-2.20
2018-02-08T08:51:54.752Z,-2.17
2018-02-08T08:53:47.722Z,-1.98
2018-02-08T08:54:47.548Z,-2.03
2018-02-08T08:56:40.534Z,-1.82
2018-02-08T08:57:40.497Z,-1.81
2018-02-08T08:59:33.574Z,-1.81
2018-02-08T09:00:33.395Z,-1.88
2018-02-08T09:02:26.388Z,-1.80
2018-02-08T09:03:27.179Z,-1.80
2018-02-08T09:05:19.358Z,-1.62
2018-02-08T09:06:19.365Z,-1.56
2018-02-08T09:08:12.191Z,-1.43
2018-02-08T09:09:12.159Z,-1.41
2018-02-08T09:11:05.388Z,-1.28
2018-02-08T09:12:05.262Z,-1.20
2018-02-08T09:13:58.484Z,-1.06
2018-02-08T09:14:58.187Z,-1.05
2018-02-08T09:16:52.074Z,-0.91
2018-02-08T09:17:51.186Z,-0.92
2018-02-08T09:19:44.196Z,-0.89
2018-02-08T09:20:44.101Z,-0.91
2018-02-08T09:22:37.233Z,-0.80
2018-02-08T09:23:37.217Z,-0.78
2018-02-08T09:25:29.993Z,-0.80
2018-02-08T09:26:30.051Z,-0.70
2018-02-08T09:28:22.980Z,-0.70
2018-02-08T09:29:23.117Z,-0.69
2018-02-08T09:31:15.988Z,-0.54
2018-02-08T09:32:16.299Z,-0.69
2018-02-08T09:34:08.938Z,-0.70
2018-02-08T09:35:08.823Z,-0.70
2018-02-08T09:37:01.866Z,-0.52
2018-02-08T09:38:01.804Z,-0.54
2018-02-08T09:39:01.732Z,-0.51
2018-02-08T09:40:01.795Z,-0.42
2018-02-08T09:41:01.778Z,-0.37
2018-02-08T09:42:02.070Z,-0.33
2018-02-08T09:43:01.798Z,-0.27
2018-02-08T09:44:01.930Z,-0.29
2018-02-08T09:45:01.860Z,-0.24
2018-02-08T09:46:01.812Z,-0.24
2018-02-08T09:47:02.425Z,-0.19
2018-02-08T09:48:01.890Z,-0.16
2018-02-08T09:49:01.942Z,-0.18
2018-02-08T09:50:01.863Z,-0.31
2018-02-08T09:51:01.947Z,-0.22
2018-02-08T09:52:02.034Z,-0.09
2018-02-08T09:53:02.298Z,-0.04
2018-02-08T09:54:02.081Z,0.06
2018-02-08T09:55:02.196Z,0.07
2018-02-08T09:56:02.097Z,0.05
2018-02-08T09:57:02.326Z,-0.06
2018-02-08T09:58:02.038Z,0.05
2018-02-08T09:59:02.433Z,0.13
2018-02-08T10:00:02.210Z,0.09
2018-02-08T10:01:02.055Z,0.10
2018-02-08T10:02:02.344Z,0.20
2018-02-08T10:03:02.142Z,0.39
2018-02-08T10:04:02.089Z,0.38
2018-02-08T10:05:02.126Z,0.46
2018-02-08T10:06:02.193Z,0.42
2018-02-08T10:07:02.373Z,0.46
2018-02-08T10:08:02.278Z,0.51
2018-02-08T10:09:02.114Z,0.60
2018-02-08T10:10:02.158Z,0.61
2018-02-08T10:11:02.142Z,0.67
2018-02-08T10:12:02.152Z,0.70
2018-02-08T10:13:02.163Z,0.75
2018-02-08T10:14:02.177Z,0.76
2018-02-08T10:15:02.192Z,0.78
2018-02-08T10:16:02.203Z,0.78
2018-02-08T10:17:02.278Z,0.79
2018-02-08T10:18:02.243Z,0.83
2018-02-08T10:19:02.244Z,0.83
2018-02-08T10:20:02.282Z,0.79
2018-02-08T10:21:02.299Z,0.92
2018-02-08T10:22:02.294Z,0.97
2018-02-08T10:23:02.308Z,0.90
2018-02-08T10:24:02.347Z,0.96
2018-02-08T10:25:02.351Z,0.97
2018-02-08T10:26:02.376Z,0.89
2018-02-08T10:27:02.374Z,1.00
2018-02-08T10:28:02.394Z,0.97
2018-02-08T10:29:02.383Z,1.03
2018-02-08T10:30:02.409Z,1.06
2018-02-08T10:31:02.406Z,1.01
2018-02-08T10:32:02.453Z,1.12
2018-02-08T10:33:02.434Z,1.16
2018-02-08T10:34:02.464Z,1.32
2018-02-08T10:35:02.462Z,1.34
2018-02-08T10:36:02.523Z,1.29
2018-02-08T10:37:02.538Z,1.33
2018-02-08T10:38:02.521Z,1.32
2018-02-08T10:39:02.521Z,1.37
2018-02-08T10:40:02.529Z,1.36
2018-02-08T10:41:02.572Z,1.33
2018-02-08T10:42:02.555Z,1.34
2018-02-08T10:43:02.616Z,1.46
2018-02-08T10:44:02.600Z,1.42
2018-02-08T10:45:02.626Z,1.51
2018-02-08T10:46:02.613Z,1.51
2018-02-08T10:47:02.673Z,1.42
2018-02-08T10:48:02.649Z,1.54
2018-02-08T10:49:02.663Z,1.60
2018-02-08T10:50:02.728Z,1.51
2018-02-08T10:51:02.683Z,1.58
2018-02-08T10:52:02.708Z,1.68
2018-02-08T10:53:02.717Z,1.69
2018-02-08T10:54:02.735Z,1.72
2018-02-08T10:55:02.774Z,1.72
2018-02-08T10:56:02.764Z,1.82
2018-02-08T10:57:02.793Z,1.93
2018-02-08T10:58:02.788Z,1.89
2018-02-08T10:59:02.808Z,1.93
2018-02-08T11:00:02.815Z,1.94
2018-02-08T11:01:02.876Z,1.91
2018-02-08T11:02:02.842Z,1.91
2018-02-08T11:03:02.848Z,1.85
2018-02-08T11:04:02.863Z,1.83
2018-02-08T11:05:02.878Z,1.90
2018-02-08T11:06:02.958Z,1.89
2018-02-08T11:07:02.916Z,1.90
2018-02-08T11:08:02.920Z,1.99
2018-02-08T11:09:02.930Z,1.91
2018-02-08T11:10:03.011Z,2.02
2018-02-08T11:11:02.973Z,2.01
2018-02-08T11:12:02.975Z,2.12
2018-02-08T11:13:03.002Z,2.15
2018-02-08T11:14:03.012Z,2.06
2018-02-08T11:15:03.035Z,1.99
2018-02-08T11:16:03.036Z,1.87
2018-02-08T11:17:03.060Z,1.93
2018-02-08T11:18:03.059Z,1.94
2018-02-08T11:19:03.104Z,1.82
2018-02-08T11:20:03.090Z,1.87
2018-02-08T11:21:03.170Z,1.93
2018-02-08T11:22:03.113Z,2.01
2018-02-08T11:23:03.129Z,2.08
2018-02-08T11:24:03.143Z,2.06
2018-02-08T11:25:03.176Z,2.13
2018-02-08T11:26:03.176Z,2.19
2018-02-08T11:27:03.204Z,2.17
2018-02-08T11:28:03.205Z,2.27
2018-02-08T11:29:03.236Z,2.10
2018-02-08T11:30:03.230Z,2.12
2018-02-08T11:31:03.248Z,2.10
2018-02-08T11:32:03.263Z,2.16
2018-02-08T11:33:03.279Z,2.19
2018-02-08T11:34:03.331Z,2.23
2018-02-08T11:35:03.331Z,2.17
2018-02-08T11:36:03.375Z,2.26
2018-02-08T11:37:03.330Z,2.16
2018-02-08T11:38:03.361Z,2.22
2018-02-08T11:39:03.369Z,2.27
2018-02-08T11:40:03.377Z,2.19
2018-02-08T11:41:03.389Z,2.38
2018-02-08T11:42:03.406Z,2.37
2018-02-08T11:43:03.438Z,2.34
2018-02-08T11:44:03.485Z,2.35
2018-02-08T11:45:03.445Z,2.40
2018-02-08T11:46:03.482Z,2.37
2018-02-08T11:47:03.504Z,2.48
2018-02-08T11:48:03.540Z,2.52
2018-02-08T11:49:03.538Z,2.53
2018-02-08T11:50:03.552Z,2.59
2018-02-08T11:51:03.549Z,2.69
2018-02-08T11:52:03.615Z,2.59
2018-02-08T11:53:03.578Z,2.51
2018-02-08T11:54:03.587Z,2.51
2018-02-08T11:55:03.594Z,2.53
2018-02-08T11:56:03.623Z,2.59
2018-02-08T11:57:03.638Z,2.55
2018-02-08T11:58:03.638Z,2.67
2018-02-08T11:59:03.649Z,2.56
2018-02-08T12:00:03.678Z,2.61
2018-02-08T12:01:03.683Z,2.64
2018-02-08T12:02:03.705Z,2.66
2018-02-08T12:03:03.721Z,2.67
2018-02-08T12:04:03.730Z,2.73
2018-02-08T12:05:03.747Z,2.74
2018-02-08T12:06:03.760Z,2.73
2018-02-08T12:07:03.776Z,2.61
2018-02-08T12:08:03.781Z,2.69
2018-02-08T12:09:03.798Z,2.61
2018-02-08T12:10:03.816Z,2.76
2018-02-08T12:11:03.832Z,2.77
2018-02-08T12:12:03.843Z,2.66
2018-02-08T12:13:03.856Z,2.53
2018-02-08T12:14:03.869Z,2.55
2018-02-08T12:15:03.890Z,2.71
2018-02-08T12:16:03.902Z,2.73
2018-02-08T12:17:03.917Z,2.74
2018-02-08T12:18:03.927Z,2.76
2018-02-08T12:19:03.944Z,2.77
2018-02-08T12:20:03.961Z,2.79
2018-02-08T12:21:03.973Z,2.79
2018-02-08T12:22:03.988Z,2.84
2018-02-08T12:23:04.005Z,2.87
2018-02-08T12:24:04.020Z,2.94
2018-02-08T12:25:04.035Z,2.94
2018-02-08T12:26:04.069Z,3.07
2018-02-08T12:27:04.063Z,3.15
2018-02-08T12:28:04.086Z,3.12
2018-02-08T12:29:04.089Z,3.13
2018-02-08T12:30:04.107Z,3.09
2018-02-08T12:31:04.125Z,3.18
2018-02-08T12:32:04.137Z,3.12
2018-02-08T12:33:04.158Z,3.12
2018-02-08T12:34:04.172Z,3.20
2018-02-08T12:35:04.181Z,3.30
2018-02-08T12:36:04.196Z,3.25
2018-02-08T12:37:04.217Z,3.15
2018-02-08T12:38:04.225Z,3.20
2018-02-08T12:39:04.244Z,3.05
2018-02-08T12:40:04.253Z,3.07
2018-02-08T12:41:04.332Z,3.06
2018-02-08T12:42:04.285Z,3.12
2018-02-08T12:43:04.404Z,3.16
2018-02-08T12:44:04.318Z,3.20
2018-02-08T12:45:04.328Z,3.16
2018-02-08T12:46:04.349Z,3.20
2018-02-08T12:47:04.360Z,3.23
2018-02-08T12:48:04.374Z,3.21
2018-02-08T12:49:04.389Z,3.18
2018-02-08T12:50:04.430Z,3.36
2018-02-08T12:51:04.566Z,3.36
2018-02-08T12:52:04.496Z,3.39
2018-02-08T12:53:04.453Z,3.33
2018-02-08T12:54:04.472Z,3.40
2018-02-08T12:55:04.478Z,3.49
2018-02-08T12:56:04.502Z,3.42
2018-02-08T12:57:04.550Z,3.53
2018-02-08T12:58:04.524Z,3.46
2018-02-08T12:59:04.540Z,3.42
2018-02-08T13:00:04.559Z,3.50
2018-02-08T13:01:04.569Z,3.49
2018-02-08T13:02:04.585Z,3.57
2018-02-08T13:03:04.599Z,3.61
2018-02-08T13:04:04.619Z,3.64
2018-02-08T13:05:04.629Z,3.61
2018-02-08T13:06:04.648Z,3.67
2018-02-08T13:07:04.701Z,3.75
2018-02-08T13:08:04.674Z,3.78
2018-02-08T13:09:04.686Z,3.75
2018-02-08T13:10:04.702Z,3.65
2018-02-08T13:11:04.724Z,3.64
2018-02-08T13:12:04.737Z,3.64
2018-02-08T13:13:04.756Z,3.64
2018-02-08T13:14:04.766Z,3.60
2018-02-08T13:15:04.783Z,3.54
2018-02-08T13:16:04.792Z,3.54
2018-02-08T13:17:04.818Z,3.62
2018-02-08T13:18:04.828Z,3.60
2018-02-08T13:19:04.840Z,3.53
2018-02-08T13:20:04.858Z,3.54
2018-02-08T13:21:04.872Z,3.60
2018-02-08T13:22:04.886Z,3.60
2018-02-08T13:23:04.977Z,3.42
2018-02-08T13:24:04.919Z,3.57
2018-02-08T13:25:04.940Z,3.52
2018-02-08T13:26:04.949Z,3.47
2018-02-08T13:27:04.968Z,3.34
2018-02-08T13:28:04.978Z,3.44
2018-02-08T13:29:04.994Z,3.49
2018-02-08T13:30:05.008Z,3.49
2018-02-08T13:31:05.155Z,3.44
2018-02-08T13:32:05.047Z,3.58
2018-02-08T13:33:05.050Z,3.62
2018-02-08T13:34:05.068Z,3.58
2018-02-08T13:35:05.080Z,3.54
2018-02-08T13:36:05.101Z,3.54
2018-02-08T13:37:05.115Z,3.60
2018-02-08T13:38:05.127Z,3.53
2018-02-08T13:39:05.147Z,3.49
2018-02-08T13:40:05.156Z,3.47
2018-02-08T13:41:05.174Z,3.60
2018-02-08T13:42:05.189Z,3.57
2018-02-08T13:43:05.206Z,3.62
2018-02-08T13:44:05.223Z,3.54
2018-02-08T13:45:05.232Z,3.65
2018-02-08T13:46:05.250Z,3.68
2018-02-08T13:47:05.265Z,3.71
2018-02-08T13:48:05.280Z,3.64
2018-02-08T13:49:05.292Z,3.67
2018-02-08T13:50:05.309Z,3.64
2018-02-08T13:51:05.327Z,3.67
2018-02-08T13:52:05.344Z,3.71
2018-02-08T13:53:05.357Z,3.75
2018-02-08T13:54:05.371Z,3.70
2018-02-08T13:55:05.386Z,3.65
2018-02-08T13:56:05.408Z,3.67
2018-02-08T13:57:05.414Z,3.71
2018-02-08T13:58:05.430Z,3.71
2018-02-08T13:59:05.445Z,3.64
2018-02-08T14:00:05.463Z,3.70
2018-02-08T14:01:05.485Z,3.65
2018-02-08T14:02:05.494Z,3.70
2018-02-08T14:03:05.514Z,3.68
2018-02-08T14:04:05.524Z,3.68
2018-02-08T14:05:05.556Z,3.68
2018-02-08T14:06:05.551Z,3.67
2018-02-08T14:07:05.570Z,3.58
2018-02-08T14:08:05.585Z,3.58
2018-02-08T14:09:05.599Z,3.50
2018-02-08T14:10:05.614Z,3.65
2018-02-08T14:11:05.628Z,3.68
2018-02-08T14:12:05.645Z,3.70
2018-02-08T14:13:05.663Z,3.71
2018-02-08T14:14:05.675Z,3.68
2018-02-08T14:15:05.691Z,3.82
2018-02-08T14:16:05.707Z,3.76
2018-02-08T14:17:05.723Z,3.83
2018-02-08T14:18:05.738Z,3.88
2018-02-08T14:19:05.749Z,3.90
2018-02-08T14:20:05.905Z,3.88
2018-02-08T14:21:05.797Z,3.80
2018-02-08T14:22:05.794Z,3.78
2018-02-08T14:23:05.808Z,3.85
2018-02-08T14:24:05.830Z,3.85
2018-02-08T14:25:05.841Z,3.92
2018-02-08T14:26:05.857Z,3.89
2018-02-08T14:27:05.872Z,3.88
2018-02-08T14:28:05.897Z,4.01
2018-02-08T14:29:05.902Z,3.90
2018-02-08T14:30:05.918Z,3.86
2018-02-08T14:31:05.938Z,3.83
2018-02-08T14:32:06.020Z,3.80
2018-02-08T14:33:06.024Z,3.98
2018-02-08T14:34:06.020Z,3.98
2018-02-08T14:35:05.999Z,3.97
2018-02-08T14:36:06.017Z,4.07
2018-02-08T14:37:06.036Z,4.06
2018-02-08T14:38:06.042Z,4.01
2018-02-08T14:39:06.054Z,4.04
2018-02-08T14:40:06.071Z,4.00
2018-02-08T14:41:06.176Z,3.94
2018-02-08T14:42:06.190Z,3.96
2018-02-08T14:43:06.153Z,4.03
2018-02-08T14:44:06.129Z,4.04
2018-02-08T14:45:06.148Z,4.14
2018-02-08T14:46:06.167Z,4.12
2018-02-08T14:47:06.183Z,4.08
2018-02-08T14:48:06.194Z,4.06
2018-02-08T14:49:06.210Z,3.97
2018-02-08T14:50:06.225Z,4.04
2018-02-08T14:51:06.237Z,4.04
2018-02-08T14:52:06.252Z,3.90
2018-02-08T14:53:06.262Z,3.83
2018-02-08T14:54:06.281Z,3.82
2018-02-08T14:55:06.297Z,3.78
2018-02-08T14:56:06.312Z,3.75
2018-02-08T14:57:06.390Z,3.82
2018-02-08T14:58:06.345Z,3.85
2018-02-08T14:59:06.354Z,3.78
2018-02-08T15:00:06.369Z,3.78
2018-02-08T15:01:06.385Z,3.98
2018-02-08T15:02:06.400Z,3.89
2018-02-08T15:03:06.416Z,3.98
2018-02-08T15:04:06.434Z,3.92
2018-02-08T15:05:06.483Z,3.98
2018-02-08T15:06:06.464Z,3.97
2018-02-08T15:07:06.476Z,3.90
2018-02-08T15:08:06.504Z,3.85
2018-02-08T15:09:06.509Z,3.83
2018-02-08T15:10:06.522Z,3.86
2018-02-08T15:11:06.535Z,3.90
2018-02-08T15:12:06.550Z,3.92
2018-02-08T15:13:06.565Z,3.90
2018-02-08T15:14:06.578Z,3.90
2018-02-08T15:15:06.596Z,3.89
2018-02-08T15:16:06.616Z,3.62
2018-02-08T15:17:06.624Z,3.76
2018-02-08T15:18:06.640Z,3.82
2018-02-08T15:19:06.661Z,3.80
2018-02-08T15:20:06.668Z,3.82
2018-02-08T15:21:06.686Z,3.62
2018-02-08T15:22:06.701Z,3.70
2018-02-08T15:23:06.715Z,3.65
2018-02-08T15:24:06.730Z,3.70
2018-02-08T15:25:06.746Z,3.65
2018-02-08T15:26:06.767Z,3.65
2018-02-08T15:27:06.780Z,3.67
2018-02-08T15:28:06.811Z,3.57
2018-02-08T15:29:06.834Z,3.61
2018-02-08T15:30:06.819Z,3.57
2018-02-08T15:31:06.873Z,3.46
2018-02-08T15:32:06.870Z,3.44
2018-02-08T15:33:06.869Z,3.44
2018-02-08T15:34:06.884Z,3.42
2018-02-08T15:35:06.892Z,3.42
2018-02-08T15:36:06.913Z,3.28
2018-02-08T15:37:06.923Z,3.34
2018-02-08T15:38:06.953Z,3.33
2018-02-08T15:39:06.956Z,3.23
2018-02-08T15:40:07.020Z,3.36
2018-02-08T15:41:07.032Z,3.40
2018-02-08T15:42:07.028Z,3.34
2018-02-08T15:43:07.010Z,3.28
2018-02-08T15:44:07.037Z,3.30
2018-02-08T15:45:07.047Z,3.28
2018-02-08T15:46:07.108Z,3.23
2018-02-08T15:47:07.102Z,3.31
2018-02-08T15:48:07.090Z,3.33
2018-02-08T15:49:07.114Z,3.40
2018-02-08T15:50:07.117Z,3.31
2018-02-08T15:51:07.133Z,3.30
2018-02-08T15:52:07.143Z,3.36
2018-02-08T15:53:07.158Z,3.31
2018-02-08T15:54:07.172Z,3.31
2018-02-08T15:55:07.189Z,3.31
2018-02-08T15:56:07.246Z,3.30
2018-02-08T15:57:07.257Z,3.28
2018-02-08T15:58:07.238Z,3.18
2018-02-08T15:59:07.250Z,3.16
2018-02-08T16:00:07.279Z,3.12
2018-02-08T16:01:07.276Z,3.16